Time;durP1;ratioP1;P1;durP2;ratioP2;P2;SDS_P1;SDS_P2;PMS_P1;PMS_P2;Temp;Humidity;BMP_temperature;BMP_pressure;BME280_temperature;BME280_humidity;BME280_pressure;Samples;Min_cycle;Max_cycle;Signal;HPM_P1;HPM_P2
2023/09/29 00:00:34;;;;;;;24.98;11.95;;;;;;;17.30;100.00;101525.81;5025328;28;20037;-74
2023/09/29 00:03:00;;;;;;;30.92;12.73;;;;;;;17.27;100.00;101517.09;5025644;28;20151;-74
2023/09/29 00:05:27;;;;;;;35.58;13.57;;;;;;;17.08;100.00;101521.31;5020074;28;20224;-73
2023/09/29 00:07:54;;;;;;;26.58;12.38;;;;;;;17.09;100.00;101514.06;5030447;28;20974;-73
2023/09/29 00:10:21;;;;;;;32.35;14.57;;;;;;;17.13;100.00;101503.91;5051671;28;20483;-74
2023/09/29 00:12:51;;;;;;;27.90;13.45;;;;;;;17.22;100.00;101506.72;5036310;28;20025;-73
2023/09/29 00:15:18;;;;;;;32.65;13.70;;;;;;;17.25;100.00;101514.53;5030232;28;20042;-74
2023/09/29 00:17:44;;;;;;;28.20;13.10;;;;;;;17.28;100.00;101508.91;5021280;28;20042;-74
2023/09/29 00:20:44;;;;;;;31.90;14.32;;;;;;;17.31;100.00;101502.41;5027839;28;20239;-73
2023/09/29 00:23:02;;;;;;;;;;;;;;;17.31;100.00;101502.41;5026288;28;20049;-74
2023/09/29 00:25:28;;;;;;;25.80;13.00;;;;;;;17.31;100.00;101500.56;5022666;28;19920;-74
2023/09/29 00:27:56;;;;;;;30.58;13.05;;;;;;;17.33;100.00;101509.41;5031223;28;20033;-73
2023/09/29 00:30:21;;;;;;;26.42;13.35;;;;;;;17.33;100.00;101501.31;5031235;28;20871;-73
2023/09/29 00:32:49;;;;;;;23.38;12.90;;;;;;;17.33;100.00;101498.63;5027426;28;20123;-74
2023/09/29 00:35:24;;;;;;;26.60;13.60;;;;;;;17.28;100.00;101497.28;5038570;28;20039;-73
2023/09/29 00:37:54;;;;;;;32.80;13.77;;;;;;;17.30;100.00;101495.31;5033183;28;21191;-74
2023/09/29 00:40:20;;;;;;;28.02;13.75;;;;;;;17.33;100.00;101500.47;5017535;28;20076;-74
2023/09/29 00:42:46;;;;;;;29.50;13.48;;;;;;;17.33;100.00;101495.91;5024372;28;20044;-73
2023/09/29 00:45:16;;;;;;;29.02;13.85;;;;;;;17.35;100.00;101493.94;5027452;28;20108;-74
2023/09/29 00:47:45;;;;;;;29.98;13.93;;;;;;;17.37;100.00;101480.34;5026437;28;20041;-73
2023/09/29 00:50:11;;;;;;;30.35;16.20;;;;;;;17.37;100.00;101487.56;5030716;28;20033;-74
2023/09/29 00:52:38;;;;;;;31.17;13.23;;;;;;;17.41;100.00;101484.50;5030146;28;20034;-73
2023/09/29 00:55:14;;;;;;;31.80;14.50;;;;;;;17.42;100.00;101488.94;5043774;28;20033;-74
2023/09/29 00:57:40;;;;;;;25.13;13.93;;;;;;;17.43;100.00;101481.69;5046591;28;20044;-73
2023/09/29 01:00:18;;;;;;;33.90;14.45;;;;;;;17.45;100.00;101479.72;5029380;28;20030;-74
2023/09/29 01:02:44;;;;;;;28.13;14.25;;;;;;;17.37;100.00;101480.34;5034085;28;20033;-73
2023/09/29 01:05:14;;;;;;;29.13;15.60;;;;;;;17.42;100.00;101480.84;5060115;28;20056;-75
2023/09/29 01:07:41;;;;;;;31.17;15.10;;;;;;;17.43;100.00;101487.94;5026852;28;20038;-73
2023/09/29 01:10:10;;;;;;;28.40;14.55;;;;;;;17.42;100.00;101486.22;5027979;28;20034;-74
2023/09/29 01:12:36;;;;;;;30.42;15.13;;;;;;;17.41;100.00;101473.72;5027415;28;20091;-74
2023/09/29 01:15:03;;;;;;;33.17;16.33;;;;;;;17.39;100.00;101477.53;5023617;28;20038;-74
2023/09/29 01:17:28;;;;;;;34.45;16.58;;;;;;;17.45;100.00;101479.72;5063855;28;21045;-74
2023/09/29 01:19:54;;;;;;;33.78;17.08;;;;;;;17.47;100.00;101472.34;5036268;28;20111;-74
2023/09/29 01:22:21;;;;;;;32.72;15.77;;;;;;;17.52;100.00;101470.13;5034242;28;20052;-73
2023/09/29 01:24:46;;;;;;;29.90;15.50;;;;;;;17.45;100.00;101479.72;5035570;28;20083;-74
2023/09/29 01:27:12;;;;;;;33.47;16.38;;;;;;;17.53;100.00;101478.09;5033978;28;20578;-74
2023/09/29 01:29:41;;;;;;;27.25;17.05;;;;;;;17.44;100.00;101472.63;5027524;28;20037;-74
2023/09/29 01:32:12;;;;;;;30.02;16.05;;;;;;;17.50;100.00;101475.66;5026449;28;20056;-74
2023/09/29 01:34:37;;;;;;;32.70;17.88;;;;;;;17.50;100.00;101482.88;5041281;28;20041;-75
2023/09/29 01:37:03;;;;;;;31.23;17.33;;;;;;;17.53;100.00;101475.41;5034794;28;20050;-74
2023/09/29 01:39:30;;;;;;;29.52;17.02;;;;;;;17.55;100.00;101478.81;5035289;28;20143;-74
2023/09/29 01:41:56;;;;;;;29.98;15.45;;;;;;;17.56;100.00;101477.84;5037462;28;20080;-74
2023/09/29 01:44:21;;;;;;;34.00;17.02;;;;;;;17.50;100.00;101472.97;5036243;28;20052;-74
2023/09/29 01:46:49;;;;;;;33.35;16.17;;;;;;;17.60;100.00;101471.22;5005006;28;20053;-75
2023/09/29 01:49:15;;;;;;;33.95;16.77;;;;;;;17.58;100.00;101465.09;5034601;28;20037;-73
2023/09/29 01:51:40;;;;;;;31.67;16.67;;;;;;;17.61;100.00;101462.13;5035036;28;20041;-74
2023/09/29 01:54:06;;;;;;;36.80;17.10;;;;;;;17.66;100.00;101459.06;5024319;28;20045;-74
2023/09/29 01:56:31;;;;;;;30.67;17.50;;;;;;;17.54;100.00;101454.69;5030598;28;20223;-73
2023/09/29 01:58:58;;;;;;;27.88;17.83;;;;;;;17.60;100.00;101456.88;5031423;28;20103;-74
2023/09/29 02:01:23;;;;;;;28.90;16.35;;;;;;;17.58;100.00;101448.91;5056442;28;20034;-74
2023/09/29 02:03:49;;;;;;;32.97;17.92;;;;;;;17.66;100.00;101447.41;5018562;28;20952;-74
2023/09/29 02:06:16;;;;;;;33.65;17.02;;;;;;;17.59;100.00;101439.84;5022404;28;20143;-74
2023/09/29 02:08:42;;;;;;;31.42;16.30;;;;;;;17.70;100.00;101441.63;5032074;28;20029;-74
2023/09/29 02:11:08;;;;;;;27.13;16.10;;;;;;;17.70;100.00;101432.69;5031773;28;21199;-74
2023/09/29 02:13:35;;;;;;;29.17;15.80;;;;;;;17.66;100.00;101432.06;5049200;28;20042;-73
2023/09/29 02:16:03;;;;;;;36.75;17.52;;;;;;;17.70;100.00;101427.28;5014303;28;20155;-74
2023/09/29 02:18:29;;;;;;;30.23;16.38;;;;;;;17.70;100.00;101428.16;5037447;28;20044;-74
2023/09/29 02:20:57;;;;;;;26.52;15.38;;;;;;;17.66;100.00;101423.97;5031099;28;20045;-74
2023/09/29 02:23:23;;;;;;;27.98;15.38;;;;;;;17.72;100.00;101428.00;5015900;28;20033;-74
2023/09/29 02:25:48;;;;;;;23.38;14.85;;;;;;;17.65;100.00;101416.88;5039685;28;20543;-73
2023/09/29 02:28:14;;;;;;;27.40;15.35;;;;;;;17.78;100.00;101419.44;5030824;28;20064;-75
2023/09/29 02:30:40;;;;;;;22.08;14.18;;;;;;;17.82;100.00;101410.09;5022487;28;20081;-74
2023/09/29 02:33:07;;;;;;;25.38;14.68;;;;;;;17.74;100.00;101409.91;5025384;28;20037;-73
2023/09/29 02:35:33;;;;;;;24.95;14.05;;;;;;;17.73;100.00;101408.19;5025014;28;20681;-73
2023/09/29 02:38:00;;;;;;;28.20;15.68;;;;;;;17.63;100.00;101391.91;5029720;28;20043;-74
2023/09/29 02:40:25;;;;;;;21.88;15.77;;;;;;;17.72;100.00;101391.13;5034994;28;20034;-74
2023/09/29 02:42:51;;;;;;;25.90;15.02;;;;;;;17.72;100.00;101391.13;5023969;28;20077;-74
2023/09/29 02:45:18;;;;;;;25.83;14.43;;;;;;;17.68;100.00;101394.22;5022894;28;20045;-74
2023/09/29 02:47:46;;;;;;;23.20;14.57;;;;;;;17.76;100.00;101389.88;5018658;28;20038;-74
2023/09/29 02:50:12;;;;;;;24.60;13.45;;;;;;;17.71;100.00;101397.47;5025203;28;20162;-74
2023/09/29 02:52:39;;;;;;;21.77;13.27;;;;;;;17.78;100.00;101395.16;5020084;28;20040;-73
2023/09/29 02:55:07;;;;;;;18.35;11.10;;;;;;;17.84;100.00;101395.50;5031729;28;20148;-74
2023/09/29 02:57:33;;;;;;;20.75;12.43;;;;;;;17.86;100.00;101400.75;5029631;28;20075;-75
2023/09/29 02:59:59;;;;;;;22.70;12.60;;;;;;;17.84;100.00;101400.03;5036900;28;20137;-74
2023/09/29 03:02:24;;;;;;;21.45;12.57;;;;;;;17.87;100.00;101402.47;5026948;28;20812;-73
2023/09/29 03:04:51;;;;;;;24.30;12.98;;;;;;;17.86;100.00;101396.22;5022397;28;20050;-73
2023/09/29 03:07:17;;;;;;;23.70;12.05;;;;;;;17.83;100.00;101401.03;5027590;28;20034;-73
2023/09/29 03:09:42;;;;;;;23.02;11.10;;;;;;;17.74;100.00;101389.16;5021313;28;20041;-75
2023/09/29 03:12:08;;;;;;;20.20;10.93;;;;;;;17.66;100.00;101393.47;5041879;28;20037;-74
2023/09/29 03:14:35;;;;;;;19.92;10.90;;;;;;;17.68;100.00;101386.13;5032397;28;20040;-74
2023/09/29 03:17:01;;;;;;;17.42;11.48;;;;;;;17.60;100.00;101389.44;5032468;28;20029;-74
2023/09/29 03:19:28;;;;;;;18.98;11.27;;;;;;;17.60;100.00;101387.59;5023063;28;20705;-73
2023/09/29 03:21:53;;;;;;;19.48;10.90;;;;;;;17.63;100.00;101383.81;5029503;28;20041;-74
2023/09/29 03:24:19;;;;;;;15.60;9.95;;;;;;;17.67;100.00;101378.97;5028430;28;20038;-74
2023/09/29 03:26:45;;;;;;;18.15;11.32;;;;;;;17.67;100.00;101382.56;5034560;28;20900;-74
2023/09/29 03:29:11;;;;;;;14.48;9.20;;;;;;;17.71;100.00;101384.00;5027897;28;20033;-74
2023/09/29 03:31:36;;;;;;;18.38;9.88;;;;;;;17.63;100.00;101372.16;5029695;28;20065;-74
2023/09/29 03:34:02;;;;;;;14.98;8.63;;;;;;;17.69;100.00;101377.88;5032662;28;20075;-74
2023/09/29 03:36:30;;;;;;;14.77;8.13;;;;;;;17.64;100.00;101376.56;5034990;28;20040;-73
2023/09/29 03:38:56;;;;;;;13.93;7.35;;;;;;;17.75;100.00;101376.53;5032880;28;20033;-74
2023/09/29 03:41:23;;;;;;;12.57;7.53;;;;;;;17.75;100.00;101371.13;5027284;28;20037;-73
2023/09/29 03:43:50;;;;;;;18.15;7.35;;;;;;;17.86;100.00;101365.66;5020937;28;20042;-73
2023/09/29 03:46:18;;;;;;;11.43;7.05;;;;;;;17.84;100.00;101355.03;5020639;28;20037;-74
2023/09/29 03:48:46;;;;;;;15.68;7.70;;;;;;;17.84;100.00;101346.94;5031955;28;20121;-73
2023/09/29 03:51:20;;;;;;;12.00;7.05;;;;;;;17.84;100.00;101338.84;5026118;28;20038;-73
2023/09/29 03:53:45;;;;;;;11.82;7.20;;;;;;;17.88;100.00;101338.59;5028921;28;20033;-74
2023/09/29 03:56:11;;;;;;;10.30;6.70;;;;;;;17.81;100.00;101338.22;5032629;28;20034;-75
2023/09/29 03:58:38;;;;;;;11.18;6.60;;;;;;;17.87;100.00;101332.31;5018408;28;20160;-73
2023/09/29 04:01:03;;;;;;;13.77;5.88;;;;;;;17.80;100.00;101325.75;5027484;28;20498;-74
2023/09/29 04:03:28;;;;;;;15.80;6.50;;;;;;;17.80;100.00;101323.03;5028554;28;20052;-74
2023/09/29 04:05:54;;;;;;;10.82;5.97;;;;;;;17.83;100.00;101330.88;5055574;28;20054;-74
2023/09/29 04:08:19;;;;;;;11.00;5.60;;;;;;;17.80;100.00;101321.19;5023792;28;20052;-73
2023/09/29 04:10:46;;;;;;;13.88;6.15;;;;;;;17.81;100.00;101331.00;5030023;28;20044;-75
2023/09/29 04:13:11;;;;;;;12.18;5.68;;;;;;;17.76;100.00;101318.88;5029251;28;20056;-74
2023/09/29 04:15:37;;;;;;;12.25;6.45;;;;;;;17.67;100.00;101323.22;5023797;28;22856;-73
2023/09/29 04:18:03;;;;;;;11.32;6.18;;;;;;;17.79;100.00;101322.19;5025514;28;24068;-74
2023/09/29 04:20:28;;;;;;;14.80;6.70;;;;;;;17.71;100.00;101324.66;5053646;28;20973;-74
2023/09/29 04:22:54;;;;;;;15.60;6.13;;;;;;;17.75;100.00;101311.78;5033891;28;20041;-74
2023/09/29 04:25:19;;;;;;;9.57;5.40;;;;;;;17.76;100.00;101302.69;5029428;28;20900;-74
2023/09/29 04:27:45;;;;;;;11.48;5.13;;;;;;;17.79;100.00;101308.69;5027381;28;20041;-73
2023/09/29 04:30:12;;;;;;;11.13;5.90;;;;;;;17.77;100.00;101308.00;5025839;28;20530;-73
2023/09/29 04:32:38;;;;;;;12.00;5.88;;;;;;;17.77;100.00;101299.00;5044679;28;20038;-74
2023/09/29 04:35:07;;;;;;;11.48;6.38;;;;;;;17.81;100.00;101303.16;5024187;28;20037;-74
2023/09/29 04:37:33;;;;;;;12.57;6.30;;;;;;;17.79;100.00;101307.84;5033969;28;20180;-74
2023/09/29 04:39:58;;;;;;;12.65;6.65;;;;;;;17.76;100.00;101310.78;5024988;28;20030;-74
2023/09/29 04:42:24;;;;;;;8.55;5.47;;;;;;;17.80;100.00;101302.31;5026322;28;20507;-75
2023/09/29 04:44:49;;;;;;;15.50;5.95;;;;;;;17.82;100.00;101288.69;5028571;28;20038;-74
2023/09/29 04:47:15;;;;;;;10.63;5.72;;;;;;;17.81;100.00;101284.28;5025953;28;20046;-74
2023/09/29 04:49:41;;;;;;;10.95;5.60;;;;;;;17.80;100.00;101282.56;5021106;28;20048;-74
2023/09/29 04:52:07;;;;;;;8.63;5.57;;;;;;;17.78;100.00;101289.97;5028709;28;20045;-73
2023/09/29 04:54:33;;;;;;;15.38;6.82;;;;;;;17.81;100.00;101284.28;5024157;28;20033;-74
2023/09/29 04:56:59;;;;;;;10.65;5.60;;;;;;;17.77;100.00;101283.72;5019023;28;20033;-74
2023/09/29 04:59:25;;;;;;;9.70;5.57;;;;;;;17.78;100.00;101280.03;5033437;28;20044;-73
2023/09/29 05:01:50;;;;;;;10.80;6.10;;;;;;;17.77;100.00;101278.31;5028544;28;20065;-73
2023/09/29 05:04:16;;;;;;;10.23;5.00;;;;;;;17.79;100.00;101275.47;5030027;28;20037;-74
2023/09/29 05:06:43;;;;;;;6.85;5.32;;;;;;;17.83;100.00;101271.53;5025413;28;20054;-74
2023/09/29 05:09:11;;;;;;;10.52;5.43;;;;;;;17.84;100.00;101274.09;5023189;28;20053;-74
2023/09/29 05:11:36;;;;;;;9.77;5.05;;;;;;;17.85;100.00;101275.78;5019282;28;20507;-74
2023/09/29 05:14:02;;;;;;;8.15;4.95;;;;;;;17.89;100.00;101273.69;5033258;28;20029;-74
2023/09/29 05:16:28;;;;;;;10.43;4.97;;;;;;;17.88;100.00;101271.97;5028136;28;20041;-74
2023/09/29 05:18:53;;;;;;;13.07;5.05;;;;;;;17.91;100.00;101269.00;5027045;28;20041;-74
2023/09/29 05:21:20;;;;;;;9.18;4.88;;;;;;;17.88;100.00;101271.97;5059491;28;20045;-75
2023/09/29 05:23:46;;;;;;;7.07;4.47;;;;;;;17.91;100.00;101265.44;5030273;28;20033;-75
2023/09/29 05:26:12;;;;;;;9.80;4.78;;;;;;;17.95;100.00;101269.59;5026703;28;20041;-73
2023/09/29 05:28:38;;;;;;;7.75;4.65;;;;;;;18.05;100.00;101279.44;5022152;28;20041;-73
2023/09/29 05:31:04;;;;;;;7.70;4.03;;;;;;;18.06;100.00;101275.75;5026023;28;20045;-74
2023/09/29 05:33:30;;;;;;;9.10;4.90;;;;;;;18.06;100.00;101267.66;5034090;28;20065;-74
2023/09/29 05:35:56;;;;;;;11.13;4.85;;;;;;;18.11;100.00;101268.09;5019482;28;20038;-74
2023/09/29 05:38:21;;;;;;;14.25;5.53;;;;;;;17.98;100.00;101269.34;5027598;28;20099;-74
2023/09/29 05:40:50;;;;;;;9.68;5.10;;;;;;;17.99;100.00;101269.19;5028389;28;21049;-73
2023/09/29 05:43:16;;;;;;;9.20;5.28;;;;;;;18.00;100.00;101261.94;5015002;28;20057;-74
2023/09/29 05:45:42;;;;;;;10.50;5.28;;;;;;;18.04;100.00;101260.69;5018629;28;20041;-73
2023/09/29 05:48:08;;;;;;;12.90;5.18;;;;;;;18.10;100.00;101254.75;5025033;28;20044;-74
2023/09/29 05:50:34;;;;;;;10.40;4.47;;;;;;;18.14;100.00;101255.34;5015010;28;20567;-73
2023/09/29 05:53:00;;;;;;;8.40;4.68;;;;;;;18.12;100.00;101260.84;5027043;28;20736;-74
2023/09/29 05:55:25;;;;;;;8.18;4.47;;;;;;;18.17;100.00;101264.00;5031006;28;20112;-74
2023/09/29 05:57:51;;;;;;;9.93;4.65;;;;;;;18.24;100.00;101265.19;5024164;28;20931;-75
2023/09/29 06:00:17;;;;;;;6.93;4.07;;;;;;;18.35;100.00;101254.25;5021245;28;21466;-73
2023/09/29 06:02:43;;;;;;;9.43;4.43;;;;;;;18.40;100.00;101256.56;5020111;28;20069;-74
2023/09/29 06:05:10;;;;;;;7.47;4.53;;;;;;;18.33;100.00;101256.25;5028957;28;20084;-73
2023/09/29 06:07:36;;;;;;;7.90;4.13;;;;;;;18.48;100.00;101269.38;5018699;28;20052;-74
2023/09/29 06:10:03;;;;;;;7.05;4.03;;;;;;;18.49;100.00;101265.69;5027461;28;20038;-74
2023/09/29 06:12:28;;;;;;;8.82;4.68;;;;;;;18.57;100.00;101255.03;5027783;28;20049;-74
2023/09/29 06:14:54;;;;;;;7.47;3.97;;;;;;;18.62;100.00;101245.53;5037603;28;20040;-74
2023/09/29 06:17:19;;;;;;;6.55;4.10;;;;;;;18.47;100.00;101246.88;5032449;28;20855;-74
2023/09/29 06:19:45;;;;;;;6.35;4.03;;;;;;;18.52;100.00;101252.72;5028459;28;20068;-73
2023/09/29 06:22:10;;;;;;;6.88;4.07;;;;;;;18.59;100.00;101253.91;5030598;28;20033;-74
2023/09/29 06:24:35;;;;;;;10.13;4.70;;;;;;;18.57;100.00;101250.47;5023945;28;20069;-73
2023/09/29 06:27:01;;;;;;;7.82;4.20;;;;;;;18.64;100.00;101256.19;5016791;28;20046;-74
2023/09/29 06:29:27;;;;;;;9.40;3.78;;;;;;;18.75;100.00;101258.78;5027563;28;20105;-74
2023/09/29 06:31:54;;;;;;;8.93;4.30;;;;;;;18.80;100.00;101250.28;5028407;28;20044;-74
2023/09/29 06:34:19;;;;;;;11.07;3.85;;;;;;;19.07;100.00;101254.97;5024293;28;20152;-74
2023/09/29 06:36:45;;;;;;;6.30;3.63;;;;;;;19.25;100.00;101252.41;5025679;28;20277;-74
2023/09/29 06:39:12;;;;;;;5.78;3.78;;;;;;;19.37;100.00;101251.25;5024776;28;20173;-74
2023/09/29 06:41:38;;;;;;;6.40;3.83;;;;;;;19.47;100.00;101233.16;5028411;28;20040;-75
2023/09/29 06:44:04;;;;;;;6.68;3.55;;;;;;;19.55;100.00;101240.56;5025184;28;20136;-74
2023/09/29 06:46:30;;;;;;;7.85;3.75;;;;;;;19.48;100.00;101239.41;5030963;28;20159;-74
2023/09/29 06:48:55;;;;;;;6.68;3.60;;;;;;;19.61;100.00;101240.00;5029614;28;20088;-74
2023/09/29 06:51:21;;;;;;;9.13;4.40;;;;;;;19.52;100.00;101246.25;5031190;28;20034;-74
2023/09/29 06:53:46;;;;;;;9.60;4.25;;;;;;;19.58;100.00;101235.72;5030300;28;20041;-73
2023/09/29 06:56:12;;;;;;;7.13;3.75;;;;;;;19.48;100.00;101243.00;5025619;28;20044;-74
2023/09/29 06:58:37;;;;;;;8.20;4.03;;;;;;;19.39;100.00;101249.28;5031314;28;20064;-74
2023/09/29 07:01:03;;;;;;;7.95;4.28;;;;;;;19.36;100.00;101260.38;5027518;28;20041;-74
2023/09/29 07:03:31;;;;;;;4.50;3.72;;;;;;;19.19;100.00;101255.69;5029698;28;20470;-74
2023/09/29 07:06:01;;;;;;;7.45;4.13;;;;;;;19.29;100.00;101268.22;5033159;28;20053;-73
2023/09/29 07:08:27;;;;;;;6.63;3.63;;;;;;;19.31;100.00;101274.31;5033479;28;20042;-73
2023/09/29 07:10:54;;;;;;;10.27;4.20;;;;;;;19.33;100.00;101269.63;5032227;28;20025;-74
2023/09/29 07:13:20;;;;;;;10.15;4.38;;;;;;;19.38;100.00;101270.06;5025351;28;20037;-73
2023/09/29 07:15:46;;;;;;;5.93;3.88;;;;;;;19.49;100.00;101266.34;5038354;28;20446;-74
2023/09/29 07:18:12;;;;;;;12.07;4.00;;;;;;;19.55;100.00;101273.03;5030696;28;20399;-74
2023/09/29 07:20:41;;;;;;;5.85;4.18;;;;;;;19.60;100.00;101270.78;5025559;28;20819;-74
2023/09/29 07:23:08;;;;;;;8.65;3.92;;;;;;;19.60;100.00;101266.22;5032974;28;20040;-74
2023/09/29 07:25:35;;;;;;;13.27;4.38;;;;;;;19.76;100.00;101259.34;5019096;28;20084;-73
2023/09/29 07:28:01;;;;;;;6.05;3.85;;;;;;;19.79;100.00;101268.03;5031618;28;20112;-74
2023/09/29 07:30:26;;;;;;;5.95;4.18;;;;;;;19.69;100.00;101267.19;5033097;28;20048;-75
2023/09/29 07:32:52;;;;;;;8.43;4.47;;;;;;;19.64;100.00;101273.03;5030743;28;20033;-75
2023/09/29 07:35:18;;;;;;;7.18;4.28;;;;;;;19.65;100.00;101266.63;5025325;28;20048;-75
2023/09/29 07:37:44;;;;;;;7.80;4.60;;;;;;;19.61;100.00;101265.19;5027799;28;20029;-74
2023/09/29 07:40:10;;;;;;;11.07;4.68;;;;;;;19.73;100.00;101273.16;5028188;28;20041;-74
2023/09/29 07:42:35;;;;;;;7.90;3.97;;;;;;;19.89;100.00;101270.72;5026106;28;20029;-74
2023/09/29 07:45:01;;;;;;;6.82;4.32;;;;;;;20.02;100.00;101276.63;5032410;28;20043;-73
2023/09/29 07:47:26;;;;;;;9.07;4.20;;;;;;;20.13;100.00;101275.59;5022210;28;20049;-73
2023/09/29 07:49:52;;;;;;;6.28;4.15;;;;;;;20.34;100.00;101275.38;5018240;28;20042;-74
2023/09/29 07:52:17;;;;;;;7.65;4.65;;;;;;;20.34;100.00;101275.38;5028173;28;20111;-74
2023/09/29 07:54:43;;;;;;;12.73;4.72;;;;;;;20.24;100.00;101275.41;5025538;28;20038;-74
2023/09/29 07:57:08;;;;;;;7.63;3.90;;;;;;;20.28;100.00;101268.72;5029583;28;20044;-74
2023/09/29 07:59:33;;;;;;;8.27;3.88;;;;;;;20.49;100.00;101264.94;5033321;28;21050;-74
2023/09/29 08:01:59;;;;;;;6.10;3.92;;;;;;;20.78;100.00;101276.41;5025827;28;21036;-74
2023/09/29 08:04:26;;;;;;;4.70;3.63;;;;;;;21.06;100.00;101271.78;5036895;28;20048;-74
2023/09/29 08:06:51;;;;;;;7.45;3.65;;;;;;;21.28;100.00;101269.59;5031376;28;20045;-75
2023/09/29 08:09:17;;;;;;;11.38;4.63;;;;;;;21.34;100.00;101271.75;5032298;28;21159;-74
2023/09/29 08:11:43;;;;;;;4.57;3.35;;;;;;;21.40;100.00;101266.53;5025522;28;20140;-74
2023/09/29 08:14:09;;;;;;;7.07;3.55;;;;;;;21.55;100.00;101264.09;5027267;28;20029;-74
2023/09/29 08:16:35;;;;;;;6.35;3.10;;;;;;;21.68;100.00;101260.97;5029270;28;20141;-74
2023/09/29 08:19:03;;;;;;;5.57;3.72;;;;;;;21.67;100.00;101265.53;5027445;28;20073;-74
2023/09/29 08:21:30;;;;;;;7.57;3.67;;;;;;;21.54;100.00;101265.13;5020273;28;20103;-74
2023/09/29 08:23:55;;;;;;;8.18;3.97;;;;;;;21.70;100.00;101259.81;5031496;28;20116;-75
2023/09/29 08:26:21;;;;;;;6.03;3.80;;;;;;;21.70;100.00;101264.38;5030996;28;20049;-74
2023/09/29 08:28:46;;;;;;;7.82;4.18;;;;;;;21.51;100.00;101273.56;5031691;28;20045;-74
2023/09/29 08:31:13;;;;;;;7.57;3.50;;;;;;;21.36;100.00;101272.44;5025719;28;20030;-74
2023/09/29 08:33:39;;;;;;;4.75;3.38;;;;;;;21.25;100.00;101270.78;5031645;28;20044;-74
2023/09/29 08:36:04;;;;;;;6.07;3.53;;;;;;;21.34;100.00;101277.19;5029463;28;20048;-74
2023/09/29 08:38:30;;;;;;;9.27;4.18;;;;;;;21.39;100.00;101278.41;5027941;28;20044;-73
2023/09/29 08:40:57;;;;;;;8.20;4.35;;;;;;;21.43;100.00;101281.63;5028740;28;20041;-74
2023/09/29 08:43:26;;;;;;;5.72;3.90;;;;;;;21.48;100.00;101286.59;5024331;28;20044;-74
2023/09/29 08:45:58;;;;;;;8.13;3.88;;;;;;;21.44;100.00;101269.81;5026531;28;20054;-74
2023/09/29 08:48:27;;;;;;;8.55;4.55;;;;;;;21.35;100.00;101287.00;5028818;28;20067;-74
2023/09/29 08:50:55;;;;;;;10.52;4.18;;;;;;;21.65;100.00;101285.72;5026887;28;20030;-75
2023/09/29 08:53:24;;;;;;;7.35;4.53;;;;;;;21.73;100.00;101275.75;5026646;28;20052;-74
2023/09/29 08:55:51;;;;;;;8.88;4.60;;;;;;;21.95;100.00;101274.38;5009184;28;20096;-74
2023/09/29 08:58:18;;;;;;;8.70;4.35;;;;;;;22.11;100.00;101272.81;5031006;28;20613;-74
2023/09/29 09:00:43;;;;;;;8.65;4.40;;;;;;;22.37;100.00;101275.47;5030939;28;20061;-74
2023/09/29 09:03:09;;;;;;;13.35;4.88;;;;;;;22.47;100.00;101278.91;5027958;28;20075;-74
2023/09/29 09:05:34;;;;;;;7.55;4.10;;;;;;;22.56;100.00;101283.38;5022616;28;20061;-74
2023/09/29 09:08:01;;;;;;;10.13;4.65;;;;;;;22.65;100.00;101274.22;5021306;28;20095;-75
2023/09/29 09:10:34;;;;;;;10.80;4.10;;;;;;;22.81;100.00;101275.28;5030995;28;20045;-74
2023/09/29 09:13:01;;;;;;;6.85;3.97;;;;;;;22.79;100.00;101283.59;5031946;28;20026;-74
2023/09/29 09:15:27;;;;;;;9.63;4.45;;;;;;;22.86;100.00;101283.78;5025101;28;20172;-73
2023/09/29 09:17:54;;;;;;;7.40;3.53;;;;;;;22.95;100.00;101280.09;5033104;28;20068;-74
2023/09/29 09:20:20;;;;;;;8.13;3.85;;;;;;;22.73;100.00;101274.22;5024176;28;20021;-73
2023/09/29 09:22:59;;;;;;;10.77;4.90;;;;;;;22.71;100.00;101278.16;5031038;28;20041;-74
2023/09/29 09:25:37;;;;;;;6.30;3.83;;;;;;;23.02;100.00;101285.72;5024199;28;20034;-74
2023/09/29 09:28:03;;;;;;;7.07;3.83;;;;;;;22.97;100.00;101284.34;5025090;28;20037;-74
2023/09/29 09:30:35;;;;;;;8.90;3.92;;;;;;;22.82;100.00;101296.88;5030215;28;20063;-74
2023/09/29 09:33:05;;;;;;;10.27;4.22;;;;;;;22.85;100.00;101291.09;5033702;28;20029;-74
2023/09/29 09:35:31;;;;;;;7.25;3.90;;;;;;;22.89;100.00;101294.34;5026353;28;20625;-74
2023/09/29 09:37:59;;;;;;;8.30;3.55;;;;;;;22.96;100.00;101295.41;5018493;28;20083;-74
2023/09/29 09:40:25;;;;;;;9.20;3.78;;;;;;;23.08;100.00;101295.94;5029287;28;20048;-74
2023/09/29 09:42:53;;;;;;;8.20;3.90;;;;;;;23.15;100.00;101299.69;5025314;28;20034;-75
2023/09/29 09:45:25;;;;;;;9.70;4.13;;;;;;;23.24;100.00;101293.22;5032566;28;20144;-74
2023/09/29 09:47:59;;;;;;;9.43;3.50;;;;;;;23.48;100.00;101297.81;5023470;28;20041;-75
2023/09/29 09:50:27;;;;;;;10.63;3.60;;;;;;;23.48;100.00;101306.84;5025132;28;20040;-74
2023/09/29 09:52:54;;;;;;;11.20;3.47;;;;;;;23.34;100.00;101309.38;5031767;28;20111;-75
2023/09/29 09:55:27;;;;;;;8.95;3.72;;;;;;;23.30;100.00;101316.22;5021457;28;20036;-75
2023/09/29 09:57:53;;;;;;;9.90;4.00;;;;;;;23.21;100.00;101312.63;5030066;28;20184;-75
2023/09/29 10:00:19;;;;;;;10.77;3.85;;;;;;;23.29;100.00;101315.34;5020661;28;20148;-75
2023/09/29 10:02:48;;;;;;;6.72;3.58;;;;;;;23.41;100.00;101321.31;5037983;28;20042;-74
2023/09/29 10:05:22;;;;;;;13.75;3.90;;;;;;;23.40;100.00;101319.63;5058622;28;20048;-74
2023/09/29 10:07:49;;;;;;;7.15;3.78;;;;;;;23.62;100.00;101316.22;5026449;28;20045;-74
2023/09/29 10:10:31;;;;;;;8.80;3.42;;;;;;;23.52;100.00;101318.25;5016697;28;20037;-74
2023/09/29 10:13:00;;;;;;;8.48;4.13;;;;;;;23.64;100.00;101316.91;5026110;28;20033;-74
2023/09/29 10:15:32;;;;;;;7.82;3.50;;;;;;;23.95;100.00;101317.06;5029239;28;20057;-75
2023/09/29 10:18:19;;;;;;;11.93;3.90;;;;;;;24.30;100.00;101312.22;5039878;28;20068;-74
2023/09/29 10:21:00;;;;;;;10.55;3.67;;;;;;;24.06;100.00;101317.72;5028456;28;20037;-74
2023/09/29 10:23:26;;;;;;;14.10;4.00;;;;;;;23.91;100.00;101325.75;5028070;28;20096;-74
2023/09/29 10:25:59;;;;;;;8.25;4.10;;;;;;;23.75;100.00;101332.06;5022715;28;21636;-74
2023/09/29 10:28:32;;;;;;;11.75;5.55;;;;;;;23.34;100.00;101326.56;5030575;28;20045;-75
2023/09/29 10:31:14;;;;;;;10.07;4.28;;;;;;;23.24;100.00;101334.91;5022975;28;20045;-74
2023/09/29 10:36:20;;;;;;;8.15;3.67;;;;;;;23.23;100.00;101335.06;5026677;28;20156;-74
2023/09/29 10:38:47;;;;;;;7.78;3.35;;;;;;;23.47;100.00;101335.09;5031676;28;20109;-75
2023/09/29 10:41:15;;;;;;;11.38;4.18;;;;;;;23.15;100.00;101341.34;5025970;28;20049;-74
2023/09/29 10:43:48;;;;;;;9.23;4.18;;;;;;;23.21;100.00;101342.56;5026042;28;20041;-74
2023/09/29 10:46:18;;;;;;;9.38;4.45;;;;;;;23.11;100.00;101339.97;5059939;28;20072;-74
2023/09/29 10:48:48;;;;;;;12.85;4.28;;;;;;;23.03;100.00;101344.53;5030594;28;20183;-74
2023/09/29 10:51:39;;;;;;;12.98;3.70;;;;;;;23.12;100.00;101351.72;5028639;28;20045;-73
2023/09/29 10:54:09;;;;;;;6.70;3.53;;;;;;;23.18;100.00;101359.22;5025225;28;20052;-75
2023/09/29 10:56:36;;;;;;;9.30;3.83;;;;;;;23.30;100.00;101352.44;5025402;28;20141;-75
2023/09/29 10:59:08;;;;;;;7.65;3.90;;;;;;;23.41;100.00;101360.28;5025771;28;20041;-73
2023/09/29 11:01:34;;;;;;;9.65;3.90;;;;;;;23.68;100.00;101361.00;5028640;28;20119;-74
2023/09/29 11:04:02;;;;;;;7.63;3.25;;;;;;;23.59;100.00;101367.41;5028148;28;20041;-73
2023/09/29 11:06:28;;;;;;;7.60;3.05;;;;;;;23.44;100.00;101370.81;5027988;28;20042;-74
2023/09/29 11:08:55;;;;;;;4.97;3.17;;;;;;;23.35;100.00;101376.44;5058497;28;20077;-74
2023/09/29 11:11:24;;;;;;;5.50;3.28;;;;;;;23.42;100.00;101378.31;5027240;28;20084;-73